createdAt,value
2023-03-26T00:03:24.062Z,8.00
2023-03-26T00:13:25.985Z,7.90
2023-03-26T00:23:29.309Z,7.90
2023-03-26T00:33:31.337Z,7.80
2023-03-26T00:43:35.818Z,7.70
2023-03-26T00:53:38.470Z,7.50
2023-03-26T01:03:50.094Z,7.20
2023-03-26T01:14:08.596Z,7.00
2023-03-26T01:24:10.591Z,6.80
2023-03-26T01:34:49.583Z,6.70
2023-03-26T01:44:59.971Z,6.60
2023-03-26T01:55:02.429Z,6.60
2023-03-26T02:05:14.990Z,6.70
2023-03-26T02:15:16.920Z,6.70
2023-03-26T02:25:20.746Z,6.80
2023-03-26T02:35:24.312Z,6.80
2023-03-26T02:45:32.118Z,6.80
2023-03-26T02:56:00.729Z,6.80
2023-03-26T03:06:10.145Z,6.90
2023-03-26T03:16:20.157Z,6.80
2023-03-26T03:26:24.638Z,6.70
2023-03-26T03:36:28.459Z,6.80
2023-03-26T03:46:37.835Z,6.90
2023-03-26T03:56:40.309Z,6.80
2023-03-26T04:06:57.750Z,6.80
2023-03-26T04:17:02.747Z,6.70
2023-03-26T04:27:12.193Z,6.70
2023-03-26T04:37:48.418Z,6.60
2023-03-26T04:47:59.224Z,6.70
2023-03-26T04:58:01.634Z,6.70
2023-03-26T05:08:32.798Z,6.70
2023-03-26T05:18:35.158Z,6.70
2023-03-26T05:28:38.296Z,6.80
2023-03-26T05:38:47.809Z,7.10
2023-03-26T05:48:55.521Z,7.20
2023-03-26T05:58:57.718Z,7.10
2023-03-26T06:09:18.238Z,7.20
2023-03-26T06:19:20.843Z,7.50
2023-03-26T06:30:01.140Z,8.40
2023-03-26T06:40:28.921Z,8.50
2023-03-26T06:50:43.870Z,9.30
2023-03-26T07:00:56.022Z,8.90
2023-03-26T07:11:16.575Z,9.00
2023-03-26T07:21:37.517Z,9.00
2023-03-26T07:31:58.260Z,9.50
2023-03-26T07:42:23.990Z,9.70
2023-03-26T07:52:49.311Z,9.90
2023-03-26T08:03:58.736Z,10.30
2023-03-26T08:15:12.604Z,10.80
2023-03-26T08:25:31.827Z,13.30
2023-03-26T08:35:33.713Z,13.80
2023-03-26T08:46:04.759Z,13.60
2023-03-26T08:56:38.182Z,12.20
2023-03-26T09:06:54.738Z,11.80
2023-03-26T09:17:08.515Z,11.60
2023-03-26T09:27:33.064Z,11.30
2023-03-26T09:37:56.128Z,12.00
2023-03-26T09:48:26.315Z,11.70
2023-03-26T09:59:05.803Z,11.80
2023-03-26T10:09:22.572Z,11.80
2023-03-26T10:19:26.915Z,11.90
2023-03-26T10:29:40.685Z,11.80
2023-03-26T10:40:12.066Z,11.60
2023-03-26T10:50:23.602Z,11.90
2023-03-26T11:00:28.347Z,13.40
2023-03-26T11:10:56.347Z,13.50
2023-03-26T11:21:19.660Z,14.10
2023-03-26T11:31:58.312Z,14.30
2023-03-26T11:42:09.498Z,14.10
2023-03-26T11:52:18.336Z,14.70
2023-03-26T12:02:37.779Z,13.80
2023-03-26T12:12:42.138Z,13.20
2023-03-26T12:22:45.307Z,13.00
2023-03-26T12:32:53.272Z,13.20
2023-03-26T12:44:47.650Z,13.70
2023-03-26T12:53:44.696Z,13.60
2023-03-26T13:04:17.276Z,13.80
2023-03-26T13:14:25.003Z,13.80
2023-03-26T13:25:05.151Z,14.00
2023-03-26T13:35:48.391Z,13.80
2023-03-26T13:46:13.398Z,14.50
2023-03-26T13:56:20.538Z,14.40
2023-03-26T14:06:30.526Z,14.30
2023-03-26T14:16:39.993Z,13.80
2023-03-26T14:27:00.634Z,13.40
2023-03-26T14:37:39.666Z,13.60
2023-03-26T14:47:53.550Z,13.40
2023-03-26T14:58:16.706Z,13.30
2023-03-26T15:08:48.718Z,13.40
2023-03-26T15:19:29.092Z,13.30
2023-03-26T15:30:08.468Z,13.10
2023-03-26T15:40:28.938Z,13.00
2023-03-26T15:51:02.054Z,12.90
2023-03-26T16:01:37.920Z,12.60
2023-03-26T16:11:53.561Z,12.60
2023-03-26T16:22:02.993Z,12.40
2023-03-26T16:32:11.114Z,12.30
2023-03-26T16:42:16.030Z,12.10
2023-03-26T16:52:32.773Z,11.80
2023-03-26T17:02:56.925Z,11.70
2023-03-26T17:13:11.621Z,11.50
2023-03-26T17:23:47.634Z,11.30
2023-03-26T17:33:55.499Z,11.10
2023-03-26T17:43:57.503Z,11.00
2023-03-26T17:54:00.138Z,10.80
2023-03-26T18:04:06.178Z,10.70
2023-03-26T18:14:50.630Z,10.40
2023-03-26T18:24:59.113Z,10.20
2023-03-26T18:35:02.474Z,10.10
2023-03-26T18:45:20.746Z,9.90
2023-03-26T18:55:25.993Z,9.70
2023-03-26T19:05:28.210Z,9.60
2023-03-26T19:15:32.668Z,9.60
2023-03-26T19:25:58.954Z,9.50
2023-03-26T19:36:06.276Z,9.20
2023-03-26T19:46:13.517Z,9.00
2023-03-26T19:56:15.801Z,9.00
2023-03-26T20:06:22.194Z,8.90
2023-03-26T20:16:32.109Z,8.80
2023-03-26T20:26:34.025Z,8.60
2023-03-26T20:36:36.821Z,8.60
2023-03-26T20:46:38.755Z,8.40
2023-03-26T20:56:40.698Z,8.50
2023-03-26T21:06:43.225Z,8.40
2023-03-26T21:16:45.532Z,8.40
2023-03-26T21:27:20.129Z,8.40
2023-03-26T21:37:22.249Z,8.20
2023-03-26T21:47:24.424Z,8.30
2023-03-26T21:57:58.658Z,8.10
2023-03-26T22:08:03.200Z,8.10
2023-03-26T22:18:05.599Z,8.10
2023-03-26T22:28:07.446Z,7.90
2023-03-26T22:38:09.669Z,7.80
2023-03-26T22:48:11.537Z,7.90
2023-03-26T22:58:13.434Z,7.90
2023-03-26T23:08:15.218Z,7.80
2023-03-26T23:18:18.255Z,7.80
2023-03-26T23:28:20.636Z,7.90
2023-03-26T23:38:22.888Z,7.80
2023-03-26T23:48:25.554Z,7.80
2023-03-26T23:58:29.219Z,7.50
